Time;durP1;ratioP1;P1;durP2;ratioP2;P2;SDS_P1;SDS_P2;PMS_P1;PMS_P2;Temp;Humidity;BMP_temperature;BMP_pressure;BME280_temperature;BME280_humidity;BME280_pressure;Samples;Min_cycle;Max_cycle;Signal;HPM_P1;HPM_P2
2021/12/20 00:02:16;;;;;;;6.10;2.37;;;2.10;99.90;;;;;;647917;221;26582;-81
2021/12/20 00:04:46;;;;;;;2.20;2.10;;;2.00;99.90;;;;;;647609;222;26578;-80
2021/12/20 00:07:11;;;;;;;3.17;2.07;;;2.00;99.90;;;;;;647473;222;26826;-81
2021/12/20 00:09:39;;;;;;;4.37;2.60;;;2.10;99.90;;;;;;647612;222;26570;-81
2021/12/20 00:12:06;;;;;;;2.50;2.07;;;2.10;99.90;;;;;;647588;222;26814;-81
2021/12/20 00:14:34;;;;;;;2.47;2.27;;;2.00;99.90;;;;;;647602;222;26588;-81
2021/12/20 00:17:01;;;;;;;5.23;2.43;;;2.00;99.90;;;;;;647628;222;26567;-81
2021/12/20 00:19:28;;;;;;;5.33;2.47;;;2.00;99.90;;;;;;647535;222;26815;-81
2021/12/20 00:21:56;;;;;;;2.90;2.10;;;1.90;99.90;;;;;;647385;222;26971;-81
2021/12/20 00:24:23;;;;;;;4.23;2.30;;;1.90;99.90;;;;;;647329;222;26508;-81
2021/12/20 00:26:51;;;;;;;3.33;2.20;;;1.90;99.90;;;;;;647283;222;26524;-81
2021/12/20 00:29:18;;;;;;;2.70;2.27;;;1.80;99.90;;;;;;647266;222;26543;-81
2021/12/20 00:31:45;;;;;;;2.47;2.20;;;2.00;99.90;;;;;;647302;222;26528;-81
2021/12/20 00:34:12;;;;;;;2.43;2.23;;;1.80;99.90;;;;;;647281;222;26865;-81
2021/12/20 00:36:40;;;;;;;4.03;2.63;;;1.80;99.90;;;;;;647313;222;26528;-81
2021/12/20 00:41:40;;;;;;;2.97;2.30;;;1.70;99.90;;;;;;647370;222;26515;-79
2021/12/20 00:44:07;;;;;;;4.30;2.43;;;1.80;99.90;;;;;;647419;222;26531;-81
2021/12/20 00:46:35;;;;;;;3.67;2.50;;;1.80;99.90;;;;;;647430;222;26516;-82
2021/12/20 00:49:02;;;;;;;3.57;2.30;;;1.70;99.90;;;;;;647387;222;26540;-80
2021/12/20 00:51:29;;;;;;;3.33;2.07;;;1.80;99.90;;;;;;647423;222;26519;-81
2021/12/20 00:53:56;;;;;;;3.10;2.07;;;1.80;99.90;;;;;;647374;222;27307;-81
2021/12/20 00:56:23;;;;;;;2.47;2.20;;;1.90;99.90;;;;;;647908;218;26495;-80
2021/12/20 00:58:51;;;;;;;2.77;2.00;;;1.80;99.90;;;;;;649033;221;26507;-80
2021/12/20 01:01:19;;;;;;;4.23;2.40;;;1.70;99.90;;;;;;648578;222;26554;-80
2021/12/20 01:03:46;;;;;;;4.50;2.10;;;1.70;99.90;;;;;;648382;222;26794;-81
2021/12/20 01:06:13;;;;;;;9.40;2.33;;;1.80;99.90;;;;;;637198;222;26524;-80
2021/12/20 01:08:41;;;;;;;3.00;2.07;;;1.90;99.90;;;;;;647919;222;26857;-80
2021/12/20 01:11:08;;;;;;;6.13;2.10;;;1.80;99.90;;;;;;647872;222;26514;-80
2021/12/20 01:13:40;;;;;;;3.37;2.27;;;1.80;99.90;;;;;;647927;222;26630;-80
2021/12/20 01:16:06;;;;;;;2.90;2.27;;;1.80;99.90;;;;;;647275;222;26881;-81
2021/12/20 01:18:31;;;;;;;2.80;2.60;;;1.60;99.90;;;;;;647364;222;26782;-81
2021/12/20 01:20:58;;;;;;;2.37;2.20;;;1.50;99.90;;;;;;647434;220;26614;-80
2021/12/20 01:23:26;;;;;;;2.97;2.30;;;1.50;99.90;;;;;;647440;222;26588;-80
2021/12/20 01:25:53;;;;;;;2.67;2.47;;;1.50;99.90;;;;;;647490;222;26815;-80
2021/12/20 01:28:20;;;;;;;2.67;2.20;;;1.60;99.90;;;;;;647529;222;26778;-80
2021/12/20 01:30:47;;;;;;;3.17;2.57;;;1.40;99.90;;;;;;647566;222;26632;-81
2021/12/20 01:33:15;;;;;;;3.60;2.60;;;1.40;99.90;;;;;;647398;222;26561;-80
2021/12/20 01:35:42;;;;;;;4.03;2.30;;;1.40;99.90;;;;;;647238;222;26518;-80
2021/12/20 01:38:10;;;;;;;3.80;2.20;;;1.40;99.90;;;;;;647247;222;26528;-80
2021/12/20 01:40:37;;;;;;;3.53;2.33;;;1.40;99.90;;;;;;647239;222;26788;-80
2021/12/20 01:43:05;;;;;;;3.50;2.23;;;1.30;99.90;;;;;;647343;222;26520;-80
2021/12/20 01:45:33;;;;;;;2.30;2.10;;;1.30;99.90;;;;;;647258;222;26542;-80
2021/12/20 01:48:04;;;;;;;2.37;2.13;;;1.20;99.90;;;;;;647233;222;26561;-81
2021/12/20 01:53:00;;;;;;;4.03;2.53;;;1.30;99.90;;;;;;647342;222;26524;-81
2021/12/20 01:55:28;;;;;;;4.77;2.53;;;1.20;99.90;;;;;;647354;222;26532;-81
2021/12/20 01:57:56;;;;;;;3.47;2.37;;;1.20;99.90;;;;;;647343;222;26506;-80
2021/12/20 02:00:23;;;;;;;3.07;2.03;;;1.20;99.90;;;;;;647342;222;26563;-80
2021/12/20 02:02:55;;;;;;;7.67;2.40;;;1.10;99.90;;;;;;647244;222;27238;-80
2021/12/20 02:05:23;;;;;;;5.17;2.50;;;1.10;99.90;;;;;;646952;222;26515;-81
2021/12/20 02:07:49;;;;;;;2.40;2.20;;;1.20;99.90;;;;;;647148;220;26514;-80
2021/12/20 02:10:14;;;;;;;4.87;2.30;;;1.20;99.90;;;;;;648843;221;26511;-80
2021/12/20 02:12:41;;;;;;;2.93;2.07;;;1.20;99.90;;;;;;648545;222;26571;-80
2021/12/20 02:15:08;;;;;;;3.00;2.40;;;1.20;99.90;;;;;;648273;222;27251;-80
2021/12/20 02:17:36;;;;;;;5.07;2.03;;;1.30;99.90;;;;;;648129;222;26516;-80
2021/12/20 02:20:03;;;;;;;2.77;1.93;;;1.20;99.90;;;;;;647881;222;26570;-80
2021/12/20 02:22:30;;;;;;;4.97;2.47;;;1.20;99.90;;;;;;647826;222;26561;-80
2021/12/20 02:24:57;;;;;;;3.00;2.10;;;1.10;99.90;;;;;;647923;221;26523;-81
2021/12/20 02:27:24;;;;;;;3.43;2.20;;;1.10;99.90;;;;;;647629;222;26560;-80
2021/12/20 02:30:05;;;;;;;5.43;2.07;;;1.00;99.90;;;;;;647498;220;26848;-80
2021/12/20 02:37:30;;;;;;;2.30;2.10;;;1.00;99.90;;;;;;647596;222;26796;-80
2021/12/20 02:39:57;;;;;;;2.40;2.20;;;1.10;99.90;;;;;;647547;222;26863;-80
2021/12/20 02:42:30;;;;;;;5.30;2.20;;;1.10;99.90;;;;;;647578;222;26612;-80
2021/12/20 02:45:04;;;;;;;3.90;2.00;;;1.10;99.90;;;;;;646860;222;26758;-80
2021/12/20 02:47:28;;;;;;;4.23;2.10;;;1.10;99.90;;;;;;646179;222;26517;-80
2021/12/20 02:49:47;;;;;;;2.50;2.30;;;1.00;99.90;;;;;;646495;222;26607;-80
2021/12/20 02:52:14;;;;;;;3.97;2.40;;;1.00;99.90;;;;;;647303;222;26563;-80
2021/12/20 02:54:41;;;;;;;3.37;2.23;;;1.00;99.90;;;;;;647250;218;27170;-79
2021/12/20 02:57:08;;;;;;;8.23;2.37;;;1.00;99.90;;;;;;647274;222;26521;-80
2021/12/20 02:59:35;;;;;;;6.43;2.50;;;1.10;99.90;;;;;;647220;222;26547;-80
2021/12/20 03:02:03;;;;;;;12.50;3.20;;;1.10;99.90;;;;;;647268;222;26523;-82
2021/12/20 03:04:31;;;;;;;8.23;2.10;;;1.00;99.90;;;;;;647100;218;26544;-80
2021/12/20 03:06:59;;;;;;;4.53;2.30;;;1.10;99.90;;;;;;647199;222;26519;-80
2021/12/20 03:09:29;;;;;;;2.57;2.23;;;1.10;99.90;;;;;;646984;222;26846;-81
2021/12/20 03:11:58;;;;;;;8.33;3.13;;;1.00;99.90;;;;;;646952;222;26535;-79
2021/12/20 03:14:30;;;;;;;7.50;2.40;;;1.00;99.90;;;;;;646961;222;26772;-79
2021/12/20 03:16:51;;;;;;;6.77;2.47;;;1.00;99.90;;;;;;646592;222;26531;-80
2021/12/20 03:19:19;;;;;;;2.97;2.20;;;1.00;99.90;;;;;;647454;220;26536;-80
2021/12/20 03:21:46;;;;;;;3.70;2.10;;;1.00;99.90;;;;;;649009;221;26579;-80
2021/12/20 03:24:14;;;;;;;3.53;1.93;;;0.90;99.90;;;;;;648476;222;26558;-80
2021/12/20 03:26:41;;;;;;;4.87;2.50;;;1.00;99.90;;;;;;648190;222;26741;-80
2021/12/20 03:29:09;;;;;;;6.23;2.40;;;1.10;99.90;;;;;;648045;222;26532;-80
2021/12/20 03:31:37;;;;;;;5.33;2.40;;;1.10;99.90;;;;;;647885;222;26514;-80
2021/12/20 03:34:05;;;;;;;5.57;2.67;;;1.00;99.90;;;;;;647948;222;26554;-80
2021/12/20 03:36:31;;;;;;;5.27;2.40;;;1.00;99.90;;;;;;647801;222;26566;-80
2021/12/20 03:38:58;;;;;;;6.23;2.63;;;1.00;99.90;;;;;;647597;221;27215;-80
2021/12/20 03:41:26;;;;;;;2.90;2.10;;;0.90;99.90;;;;;;647570;222;26559;-80
2021/12/20 03:43:53;;;;;;;5.00;2.57;;;0.90;99.90;;;;;;647563;222;26566;-79
2021/12/20 03:46:21;;;;;;;7.53;2.50;;;0.90;99.90;;;;;;647465;222;26587;-79
2021/12/20 03:48:48;;;;;;;4.83;2.27;;;0.90;99.90;;;;;;647532;222;26808;-80
2021/12/20 03:51:15;;;;;;;10.07;2.37;;;0.80;99.90;;;;;;647566;222;26567;-80
2021/12/20 03:53:42;;;;;;;4.67;2.20;;;0.90;99.90;;;;;;647583;222;26792;-80
2021/12/20 03:56:10;;;;;;;11.07;2.67;;;0.70;99.90;;;;;;647417;222;26579;-79
2021/12/20 03:58:39;;;;;;;5.57;2.50;;;0.70;99.90;;;;;;647210;221;26511;-80
2021/12/20 04:01:06;;;;;;;3.43;2.37;;;0.70;99.90;;;;;;647253;220;26532;-80
2021/12/20 04:03:35;;;;;;;6.30;2.20;;;0.70;99.90;;;;;;647164;220;26758;-80
2021/12/20 04:06:00;;;;;;;6.90;2.60;;;0.70;99.90;;;;;;647216;222;26500;-80
2021/12/20 04:08:27;;;;;;;5.37;2.40;;;0.70;99.90;;;;;;647272;222;26838;-80
2021/12/20 04:10:57;;;;;;;2.97;2.13;;;0.70;99.90;;;;;;647324;222;26503;-80
2021/12/20 04:13:23;;;;;;;6.27;2.70;;;0.70;99.90;;;;;;647275;222;26511;-79
2021/12/20 04:15:51;;;;;;;6.37;2.50;;;0.60;99.90;;;;;;647358;222;26774;-80
2021/12/20 04:18:18;;;;;;;3.90;1.93;;;0.60;99.90;;;;;;647316;222;26778;-79
2021/12/20 04:20:45;;;;;;;5.47;2.67;;;0.60;99.90;;;;;;647332;222;26742;-80
2021/12/20 04:23:13;;;;;;;5.73;2.40;;;0.50;99.90;;;;;;647356;222;26520;-79
2021/12/20 04:25:41;;;;;;;5.13;3.13;;;0.50;99.90;;;;;;647361;222;26519;-80
2021/12/20 04:28:08;;;;;;;6.13;2.67;;;0.50;99.90;;;;;;647318;222;26813;-79
2021/12/20 04:30:35;;;;;;;6.13;3.10;;;0.50;99.90;;;;;;647360;222;26516;-80
2021/12/20 04:33:02;;;;;;;3.10;2.30;;;0.50;99.90;;;;;;649207;220;26777;-79
2021/12/20 04:35:30;;;;;;;5.40;2.40;;;0.50;99.90;;;;;;648546;222;26606;-80
2021/12/20 04:38:00;;;;;;;3.83;2.20;;;0.50;99.90;;;;;;648199;222;26497;-78
2021/12/20 04:40:26;;;;;;;7.67;2.73;;;0.50;99.90;;;;;;648017;222;26538;-79
2021/12/20 04:42:54;;;;;;;6.87;2.37;;;0.50;99.90;;;;;;647836;222;26514;-79
2021/12/20 04:45:24;;;;;;;6.03;2.27;;;0.50;99.90;;;;;;647676;222;26788;-79
2021/12/20 04:47:51;;;;;;;4.93;2.33;;;0.50;99.90;;;;;;647812;222;26525;-78
2021/12/20 04:50:19;;;;;;;8.03;2.57;;;0.60;99.90;;;;;;647550;222;26606;-78
2021/12/20 04:52:46;;;;;;;2.60;2.20;;;0.50;99.90;;;;;;647570;220;26552;-78
2021/12/20 04:55:13;;;;;;;2.53;2.27;;;0.50;99.90;;;;;;647545;222;26887;-78
2021/12/20 04:57:40;;;;;;;4.67;2.30;;;0.40;99.90;;;;;;647527;222;26553;-78
2021/12/20 05:00:08;;;;;;;4.23;2.40;;;0.50;99.90;;;;;;647535;222;26602;-78
2021/12/20 05:02:35;;;;;;;4.37;2.60;;;0.50;99.90;;;;;;647975;218;26544;-78
2021/12/20 05:05:03;;;;;;;5.30;2.40;;;0.40;99.90;;;;;;648008;222;26756;-78
2021/12/20 05:07:30;;;;;;;6.87;2.73;;;0.40;99.90;;;;;;647916;222;26493;-78
2021/12/20 05:10:01;;;;;;;8.20;2.67;;;0.30;99.90;;;;;;647675;222;26524;-78
2021/12/20 05:12:25;;;;;;;9.00;3.17;;;0.30;99.90;;;;;;647413;222;26738;-78
2021/12/20 05:14:52;;;;;;;6.23;2.60;;;0.30;99.90;;;;;;647208;222;26512;-78
2021/12/20 05:17:19;;;;;;;4.73;2.80;;;0.30;99.90;;;;;;647064;222;26884;-78
2021/12/20 05:19:47;;;;;;;6.43;2.40;;;0.30;99.90;;;;;;647066;222;26525;-78
2021/12/20 05:22:15;;;;;;;2.57;2.23;;;0.40;99.90;;;;;;647253;222;26493;-78
2021/12/20 05:24:42;;;;;;;6.40;2.93;;;0.30;99.90;;;;;;647291;222;26756;-78
2021/12/20 05:27:10;;;;;;;6.20;2.67;;;0.30;99.90;;;;;;647326;222;26510;-78
2021/12/20 05:29:37;;;;;;;7.57;2.73;;;0.30;99.90;;;;;;647318;222;26819;-78
2021/12/20 05:32:06;;;;;;;6.53;3.20;;;0.40;99.90;;;;;;647362;222;26534;-78
2021/12/20 05:34:32;;;;;;;5.33;2.70;;;0.40;99.90;;;;;;647394;222;26517;-78
2021/12/20 05:37:00;;;;;;;7.03;3.20;;;0.30;99.90;;;;;;647345;222;26571;-78
2021/12/20 05:39:27;;;;;;;4.37;2.80;;;0.30;99.90;;;;;;647329;222;26540;-78
2021/12/20 05:41:54;;;;;;;2.77;2.57;;;0.40;99.90;;;;;;647335;222;26831;-78
2021/12/20 05:44:21;;;;;;;4.37;2.60;;;0.40;99.90;;;;;;649024;220;26483;-78
2021/12/20 05:46:48;;;;;;;7.20;3.17;;;0.40;99.90;;;;;;648709;222;26560;-77
2021/12/20 05:49:16;;;;;;;6.97;2.50;;;0.40;99.90;;;;;;648331;222;26539;-78
2021/12/20 05:51:43;;;;;;;5.07;2.70;;;0.40;99.90;;;;;;648285;222;26771;-78
2021/12/20 05:54:11;;;;;;;4.27;3.13;;;0.40;99.90;;;;;;647974;221;26551;-78
2021/12/20 05:56:38;;;;;;;7.03;3.20;;;0.40;99.90;;;;;;647910;222;26773;-77
2021/12/20 05:59:06;;;;;;;8.20;3.37;;;0.50;99.90;;;;;;647931;222;26545;-78
2021/12/20 06:01:34;;;;;;;5.83;3.50;;;0.50;99.90;;;;;;647732;221;26564;-78
2021/12/20 06:04:01;;;;;;;10.50;2.90;;;0.50;99.90;;;;;;647565;222;26798;-77
2021/12/20 06:06:30;;;;;;;4.20;2.80;;;0.50;99.90;;;;;;647566;222;26545;-77
2021/12/20 06:08:55;;;;;;;5.80;2.70;;;0.40;99.90;;;;;;647412;222;26855;-77
2021/12/20 06:11:24;;;;;;;9.20;2.90;;;0.60;99.90;;;;;;647582;222;26558;-77
2021/12/20 06:13:50;;;;;;;6.73;3.10;;;0.90;99.90;;;;;;647501;218;26574;-78
2021/12/20 06:16:18;;;;;;;11.33;2.77;;;0.70;99.90;;;;;;647599;222;26575;-78
2021/12/20 06:18:45;;;;;;;7.00;2.87;;;0.80;99.90;;;;;;647451;222;26564;-77
2021/12/20 06:21:12;;;;;;;8.23;3.10;;;0.80;99.90;;;;;;647236;222;26521;-78
2021/12/20 06:23:39;;;;;;;7.13;2.90;;;0.80;99.90;;;;;;647268;222;26762;-77
2021/12/20 06:26:07;;;;;;;5.63;2.90;;;0.70;99.90;;;;;;647230;222;26527;-77
2021/12/20 06:28:35;;;;;;;6.27;3.07;;;0.70;99.90;;;;;;647235;220;26561;-78
2021/12/20 06:31:02;;;;;;;5.73;2.90;;;0.70;99.90;;;;;;647669;222;26506;-77
2021/12/20 06:33:30;;;;;;;3.47;2.57;;;0.80;99.90;;;;;;647750;220;26479;-77
2021/12/20 06:35:57;;;;;;;8.57;2.63;;;0.90;99.90;;;;;;647664;222;26772;-78
2021/12/20 06:38:24;;;;;;;10.67;3.03;;;1.00;99.90;;;;;;647683;222;26546;-78
2021/12/20 06:40:51;;;;;;;3.97;2.73;;;1.10;99.90;;;;;;647690;222;26557;-77
2021/12/20 06:43:19;;;;;;;5.33;2.80;;;0.60;99.90;;;;;;647740;222;26483;-77
2021/12/20 06:45:46;;;;;;;8.20;2.80;;;0.60;99.90;;;;;;647681;222;26496;-77
2021/12/20 06:48:13;;;;;;;5.63;2.50;;;0.60;99.90;;;;;;647665;218;26505;-77
2021/12/20 06:50:41;;;;;;;5.40;2.83;;;0.60;99.90;;;;;;647426;222;26786;-77
2021/12/20 06:53:09;;;;;;;9.47;3.03;;;0.60;99.90;;;;;;647134;222;26527;-77
2021/12/20 06:55:37;;;;;;;9.50;4.27;;;0.50;99.90;;;;;;648563;220;26542;-77
2021/12/20 06:58:04;;;;;;;5.20;3.80;;;0.50;99.90;;;;;;648415;222;26770;-77
2021/12/20 07:00:31;;;;;;;4.70;3.00;;;0.60;99.90;;;;;;648173;220;26498;-77
2021/12/20 07:02:58;;;;;;;3.63;2.93;;;0.80;99.90;;;;;;648091;222;26767;-77
2021/12/20 07:05:26;;;;;;;7.40;2.90;;;0.60;99.90;;;;;;647872;221;26562;-77
2021/12/20 07:07:54;;;;;;;5.77;3.47;;;0.50;99.90;;;;;;647894;222;26564;-78
2021/12/20 07:10:22;;;;;;;5.37;2.40;;;0.60;99.90;;;;;;647888;222;26570;-78
2021/12/20 07:12:51;;;;;;;11.20;3.43;;;0.60;99.90;;;;;;647744;222;26570;-77
2021/12/20 07:15:16;;;;;;;7.60;3.03;;;0.60;99.90;;;;;;647456;222;26585;-77
2021/12/20 07:17:44;;;;;;;5.60;3.23;;;0.70;99.90;;;;;;647537;222;26791;-77
2021/12/20 07:20:11;;;;;;;2.90;2.70;;;0.60;99.90;;;;;;647600;222;26571;-78
2021/12/20 07:22:38;;;;;;;5.83;3.30;;;0.80;99.90;;;;;;647600;222;26534;-77
2021/12/20 07:25:06;;;;;;;7.50;3.83;;;0.90;99.90;;;;;;647643;222;26549;-77
2021/12/20 07:27:35;;;;;;;5.67;3.10;;;0.80;99.90;;;;;;647659;222;26573;-77
2021/12/20 07:30:01;;;;;;;5.40;3.17;;;0.80;99.90;;;;;;647622;222;26879;-77
2021/12/20 07:32:29;;;;;;;5.30;2.80;;;0.80;99.90;;;;;;647307;222;26719;-77
2021/12/20 07:34:56;;;;;;;7.00;3.13;;;0.90;99.90;;;;;;647225;222;26784;-77
2021/12/20 07:37:27;;;;;;;5.00;3.10;;;0.70;99.90;;;;;;647254;222;26510;-78
2021/12/20 07:39:52;;;;;;;4.60;3.40;;;0.80;99.90;;;;;;647029;222;26532;-77
2021/12/20 07:42:19;;;;;;;7.73;3.07;;;0.80;99.90;;;;;;647265;222;26544;-78
2021/12/20 07:44:46;;;;;;;6.13;3.13;;;0.70;99.90;;;;;;647304;222;26527;-77
2021/12/20 07:47:13;;;;;;;11.50;3.30;;;0.70;99.90;;;;;;647232;222;26787;-77
2021/12/20 07:49:41;;;;;;;6.50;3.43;;;0.60;99.90;;;;;;647221;222;26551;-77
2021/12/20 07:52:08;;;;;;;7.63;3.40;;;0.70;99.90;;;;;;647235;222;26530;-77
2021/12/20 07:54:36;;;;;;;7.60;2.90;;;0.80;99.90;;;;;;647243;222;26522;-77
2021/12/20 07:57:03;;;;;;;6.70;2.93;;;0.80;99.90;;;;;;647247;222;26784;-78
2021/12/20 07:59:30;;;;;;;16.03;4.03;;;0.80;99.90;;;;;;647205;222;26772;-78
2021/12/20 08:01:57;;;;;;;5.33;3.10;;;0.80;99.90;;;;;;647251;220;26745;-77
2021/12/20 08:04:24;;;;;;;5.90;3.33;;;0.70;99.90;;;;;;647212;222;26502;-77
2021/12/20 08:06:52;;;;;;;7.13;3.30;;;0.70;99.90;;;;;;648425;220;26587;-77
2021/12/20 08:09:20;;;;;;;9.97;3.30;;;0.70;99.90;;;;;;648533;222;26522;-77
2021/12/20 08:11:49;;;;;;;6.20;2.90;;;0.80;99.90;;;;;;648098;221;26517;-77
2021/12/20 08:14:16;;;;;;;5.57;3.03;;;0.80;99.90;;;;;;648004;221;26538;-77
2021/12/20 08:16:43;;;;;;;3.23;3.00;;;0.90;99.90;;;;;;647905;222;26506;-77
2021/12/20 08:19:10;;;;;;;8.47;3.30;;;0.80;99.90;;;;;;647656;220;26852;-77
2021/12/20 08:21:37;;;;;;;11.40;3.07;;;0.90;99.90;;;;;;648157;222;26550;-77
2021/12/20 08:24:05;;;;;;;11.07;3.00;;;1.00;99.90;;;;;;648894;221;26568;-77
2021/12/20 08:26:32;;;;;;;9.47;3.40;;;1.00;99.90;;;;;;648675;222;26532;-78
2021/12/20 08:28:59;;;;;;;5.83;3.17;;;1.00;99.90;;;;;;648633;221;26507;-77
2021/12/20 08:31:26;;;;;;;6.93;3.20;;;1.10;99.90;;;;;;648635;221;26835;-76
2021/12/20 08:33:54;;;;;;;7.80;3.40;;;1.10;99.90;;;;;;648676;222;26516;-78
2021/12/20 08:36:21;;;;;;;10.17;4.10;;;1.10;99.90;;;;;;641703;221;26566;-77
2021/12/20 08:38:49;;;;;;;9.07;3.20;;;1.30;99.90;;;;;;643070;217;26518;-80
2021/12/20 08:41:17;;;;;;;6.93;3.63;;;1.20;99.90;;;;;;645379;221;26550;-79
2021/12/20 08:43:45;;;;;;;5.30;3.07;;;1.20;99.90;;;;;;640638;222;26552;-78
2021/12/20 08:46:15;;;;;;;11.70;3.67;;;1.50;99.90;;;;;;643916;221;26572;-79
2021/12/20 08:48:40;;;;;;;10.93;4.60;;;1.40;99.90;;;;;;644926;221;26546;-78
2021/12/20 08:51:09;;;;;;;11.00;3.50;;;1.40;99.90;;;;;;644043;221;26507;-78
2021/12/20 08:53:36;;;;;;;8.00;3.50;;;1.30;99.90;;;;;;642716;221;26587;-78
2021/12/20 08:56:03;;;;;;;7.77;3.47;;;1.40;99.90;;;;;;644719;222;26775;-78
2021/12/20 08:58:30;;;;;;;7.73;3.70;;;1.50;99.90;;;;;;647200;222;26520;-78
2021/12/20 09:00:57;;;;;;;5.23;3.57;;;1.60;99.90;;;;;;647138;221;26801;-79
2021/12/20 09:03:25;;;;;;;10.20;3.80;;;1.70;99.90;;;;;;645033;221;26510;-79
2021/12/20 09:05:52;;;;;;;7.47;3.60;;;1.50;99.90;;;;;;639979;222;26785;-80
2021/12/20 09:08:20;;;;;;;6.53;3.20;;;1.50;99.90;;;;;;647221;222;26503;-80
2021/12/20 09:10:46;;;;;;;10.37;3.80;;;1.50;99.90;;;;;;642012;222;26584;-80
2021/12/20 09:13:13;;;;;;;5.73;3.37;;;1.70;99.90;;;;;;637535;226;26567;-79
2021/12/20 09:15:40;;;;;;;4.13;3.50;;;1.70;99.90;;;;;;637551;226;26580;-80
2021/12/20 09:18:08;;;;;;;8.63;4.03;;;1.90;99.90;;;;;;639008;221;26858;-80
2021/12/20 09:20:36;;;;;;;5.30;3.07;;;2.10;99.90;;;;;;649855;221;26608;-80
2021/12/20 09:23:06;;;;;;;6.47;3.13;;;1.90;99.90;;;;;;649673;221;26842;-79
2021/12/20 09:25:32;;;;;;;9.00;4.17;;;1.90;99.90;;;;;;649396;221;26503;-80
2021/12/20 09:28:00;;;;;;;8.43;3.87;;;1.90;99.90;;;;;;649090;221;26587;-77
2021/12/20 09:30:28;;;;;;;7.83;3.50;;;2.10;99.90;;;;;;638104;225;26532;-79
2021/12/20 09:32:56;;;;;;;5.33;3.07;;;2.10;99.90;;;;;;638149;225;26710;-78
2021/12/20 09:35:23;;;;;;;7.20;4.53;;;2.20;99.90;;;;;;639154;222;26520;-79
2021/12/20 09:37:51;;;;;;;7.60;4.07;;;2.10;99.90;;;;;;647579;222;27245;-80
2021/12/20 09:40:20;;;;;;;4.40;3.23;;;2.10;99.90;;;;;;646170;222;26616;-80
2021/12/20 09:42:48;;;;;;;5.67;3.53;;;2.10;99.90;;;;;;637584;225;26568;-80
2021/12/20 09:45:18;;;;;;;7.10;3.37;;;2.00;99.90;;;;;;637704;221;26574;-80
2021/12/20 09:47:46;;;;;;;9.47;3.60;;;2.00;99.90;;;;;;637446;225;26556;-79
2021/12/20 09:50:13;;;;;;;4.83;3.20;;;2.20;99.90;;;;;;637731;225;26579;-80
2021/12/20 09:52:42;;;;;;;7.13;3.10;;;2.40;99.90;;;;;;637791;225;26768;-79
2021/12/20 09:55:10;;;;;;;7.63;3.40;;;2.70;99.90;;;;;;637411;225;26578;-78
2021/12/20 09:57:38;;;;;;;5.00;2.97;;;2.70;99.90;;;;;;637410;226;26553;-78
2021/12/20 10:00:05;;;;;;;6.53;3.50;;;2.60;99.90;;;;;;637421;226;26822;-79
2021/12/20 10:02:32;;;;;;;8.03;2.90;;;2.80;99.90;;;;;;637278;226;26567;-78
2021/12/20 10:05:00;;;;;;;6.37;3.77;;;2.90;99.90;;;;;;637392;226;26576;-78
2021/12/20 10:07:29;;;;;;;7.83;3.30;;;2.90;99.90;;;;;;637483;226;26546;-78
2021/12/20 10:09:55;;;;;;;5.73;2.97;;;2.90;99.90;;;;;;640412;222;26604;-78
2021/12/20 10:12:23;;;;;;;7.37;3.57;;;3.00;99.90;;;;;;648286;221;27258;-79
2021/12/20 10:15:08;;;;;;;6.77;3.80;;;2.80;99.90;;;;;;648327;222;26554;-79
2021/12/20 10:17:48;;;;;;;8.13;3.20;;;3.00;99.90;;;;;;648188;221;26578;-79
2021/12/20 10:20:15;;;;;;;10.37;3.83;;;3.00;99.90;;;;;;648163;222;26610;-79
2021/12/20 10:22:43;;;;;;;6.53;3.67;;;3.10;99.90;;;;;;648066;222;26577;-78
2021/12/20 10:25:22;;;;;;;4.87;3.40;;;3.10;99.90;;;;;;648246;222;26574;-79
2021/12/20 10:27:49;;;;;;;6.87;3.10;;;3.30;99.90;;;;;;648196;221;26518;-79
2021/12/20 10:30:26;;;;;;;3.87;3.20;;;3.30;99.90;;;;;;649647;219;26580;-79
2021/12/20 10:32:54;;;;;;;8.47;3.10;;;3.10;99.90;;;;;;649705;221;26504;-79
2021/12/20 10:35:28;;;;;;;6.10;3.00;;;2.90;99.90;;;;;;649281;221;26565;-79
2021/12/20 10:37:56;;;;;;;6.27;2.93;;;3.10;99.90;;;;;;649208;220;26571;-79
2021/12/20 10:40:24;;;;;;;10.10;5.80;;;3.10;99.90;;;;;;649030;222;26607;-79
2021/12/20 10:42:53;;;;;;;9.40;4.23;;;3.10;99.90;;;;;;649111;221;26572;-79
2021/12/20 10:45:19;;;;;;;8.60;3.20;;;3.00;99.90;;;;;;648933;221;26823;-80
2021/12/20 10:47:45;;;;;;;5.77;2.90;;;3.00;99.90;;;;;;648845;221;26505;-79
2021/12/20 10:50:20;;;;;;;9.13;4.10;;;3.30;99.90;;;;;;648673;221;26785;-80
2021/12/20 10:52:47;;;;;;;5.43;3.07;;;3.50;99.90;;;;;;648728;222;26487;-79
2021/12/20 10:55:15;;;;;;;8.17;3.57;;;3.60;99.90;;;;;;648667;217;26778;-79
2021/12/20 10:57:42;;;;;;;6.97;3.53;;;3.40;99.90;;;;;;646182;221;26526;-79
2021/12/20 11:00:12;;;;;;;7.27;3.67;;;3.60;99.90;;;;;;647556;222;26598;-79
2021/12/20 11:03:14;;;;;;;4.63;3.07;;;3.40;99.90;;;;;;647486;222;26532;-79
2021/12/20 11:05:21;;;;;;;3.67;2.83;;;3.50;99.90;;;;;;645529;222;26563;-79
2021/12/20 11:10:23;;;;;;;11.27;3.20;;;3.90;99.90;;;;;;642628;222;26828;-79
2021/12/20 11:12:48;;;;;;;4.03;2.93;;;3.70;99.90;;;;;;637249;226;26577;-78
2021/12/20 11:15:15;;;;;;;8.30;3.40;;;3.90;99.90;;;;;;637351;226;26804;-79
2021/12/20 11:17:43;;;;;;;5.43;3.17;;;3.60;99.90;;;;;;637349;226;26598;-79
2021/12/20 11:20:12;;;;;;;5.77;3.20;;;3.80;99.90;;;;;;637315;226;26575;-79
2021/12/20 11:22:39;;;;;;;5.27;3.03;;;3.80;99.90;;;;;;640188;222;26548;-78
2021/12/20 11:25:07;;;;;;;3.80;3.00;;;3.90;99.90;;;;;;642977;222;26750;-79
2021/12/20 11:27:34;;;;;;;8.17;3.10;;;4.00;99.90;;;;;;637818;226;27049;-77
2021/12/20 11:30:17;;;;;;;4.90;3.37;;;4.10;99.90;;;;;;637719;226;26579;-80
2021/12/20 11:32:44;;;;;;;4.63;3.07;;;4.10;99.90;;;;;;637689;226;26560;-77
2021/12/20 11:35:12;;;;;;;5.63;3.30;;;4.30;99.90;;;;;;643447;222;27042;-83
2021/12/20 11:37:39;;;;;;;5.33;3.37;;;4.10;99.90;;;;;;648760;222;26538;-79
2021/12/20 11:40:08;;;;;;;6.87;2.70;;;4.20;99.90;;;;;;638954;222;26624;-82
2021/12/20 11:42:35;;;;;;;4.27;3.17;;;4.10;99.90;;;;;;642527;222;26550;-81
2021/12/20 11:45:02;;;;;;;4.67;2.90;;;4.60;99.90;;;;;;648185;222;26603;-87
2021/12/20 11:47:33;;;;;;;4.67;2.70;;;4.90;99.90;;;;;;647929;222;26565;-85
2021/12/20 11:50:01;;;;;;;5.23;2.90;;;4.70;99.90;;;;;;647620;222;27265;-84
2021/12/20 11:52:30;;;;;;;3.97;3.27;;;4.30;99.90;;;;;;647544;220;26560;-83
2021/12/20 11:54:57;;;;;;;8.63;3.30;;;4.30;99.90;;;;;;647692;222;26814;-84
2021/12/20 11:57:31;;;;;;;5.33;2.83;;;4.40;99.90;;;;;;647676;222;26825;-84
2021/12/20 11:59:59;;;;;;;5.83;2.83;;;4.30;99.90;;;;;;647588;222;26810;-84
2021/12/20 12:02:26;;;;;;;5.13;2.57;;;4.50;99.90;;;;;;647447;221;26568;-84
2021/12/20 12:04:58;;;;;;;6.83;2.70;;;4.70;99.90;;;;;;647317;218;26567;-85
2021/12/20 12:07:25;;;;;;;7.43;3.10;;;4.70;99.90;;;;;;647526;221;26783;-84
2021/12/20 12:10:07;;;;;;;6.07;2.80;;;4.80;99.90;;;;;;647367;222;26591;-84
2021/12/20 12:12:40;;;;;;;6.13;3.70;;;4.70;99.90;;;;;;647632;222;26587;-83
2021/12/20 12:15:07;;;;;;;6.67;3.00;;;4.70;99.90;;;;;;647201;222;26831;-83
2021/12/20 12:17:47;;;;;;;5.07;2.70;;;4.70;99.90;;;;;;647149;222;26510;-83
2021/12/20 12:20:11;;;;;;;6.20;2.90;;;4.70;99.90;;;;;;646958;222;26535;-83
2021/12/20 12:22:40;;;;;;;5.93;2.90;;;4.40;99.90;;;;;;647265;220;26571;-83
2021/12/20 12:25:08;;;;;;;7.23;3.50;;;4.10;99.90;;;;;;646910;222;26825;-83
2021/12/20 12:27:33;;;;;;;7.27;3.50;;;3.90;99.90;;;;;;647539;222;26515;-83
2021/12/20 12:30:28;;;;;;;6.57;2.97;;;3.70;99.90;;;;;;647660;222;26508;-83
2021/12/20 12:33:19;;;;;;;5.87;3.23;;;3.50;99.90;;;;;;647228;222;26480;-83
2021/12/20 12:35:49;;;;;;;4.10;3.00;;;3.40;99.90;;;;;;646884;221;26545;-83
2021/12/20 12:38:16;;;;;;;6.47;2.90;;;3.30;99.90;;;;;;647137;222;26516;-83
2021/12/20 12:40:46;;;;;;;6.20;3.10;;;3.90;99.90;;;;;;647117;222;26531;-83
2021/12/20 12:43:12;;;;;;;7.10;3.03;;;4.00;99.90;;;;;;647231;222;26528;-83
2021/12/20 12:45:48;;;;;;;4.17;3.17;;;4.00;99.90;;;;;;647173;220;26523;-83
2021/12/20 12:48:28;;;;;;;7.20;3.63;;;3.90;99.90;;;;;;647301;220;26528;-83
2021/12/20 12:50:55;;;;;;;6.17;3.10;;;3.80;99.90;;;;;;647358;222;26539;-83
2021/12/20 12:53:34;;;;;;;6.83;3.67;;;3.80;99.90;;;;;;648732;220;26524;-83
2021/12/20 12:56:22;;;;;;;4.83;3.30;;;3.90;99.90;;;;;;648730;222;26520;-83
2021/12/20 12:59:23;;;;;;;6.40;3.80;;;3.60;99.90;;;;;;647494;221;26859;-83
2021/12/20 13:01:50;;;;;;;7.27;3.00;;;3.70;99.90;;;;;;648040;222;26784;-83
2021/12/20 13:04:17;;;;;;;6.60;3.37;;;3.70;99.90;;;;;;647847;222;27033;-84
2021/12/20 13:06:44;;;;;;;3.63;3.13;;;3.70;99.90;;;;;;648004;222;26749;-84
2021/12/20 13:09:12;;;;;;;5.60;3.63;;;3.50;99.90;;;;;;647852;218;26626;-84
2021/12/20 13:11:40;;;;;;;6.90;3.63;;;3.60;99.90;;;;;;647687;222;26572;-83
2021/12/20 13:14:12;;;;;;;7.03;3.73;;;3.80;99.90;;;;;;647518;218;26801;-84